Time,TemperatureF,DewpointF,PressureIn,WindDirection,WindDirectionDegrees,WindSpeedMPH,WindSpeedGustMPH,Humidity,HourlyPrecipIn,Conditions,Clouds,dailyrainin,SoftwareType,DateUTC
2013-07-28 00:02:00,71.0,45.0,-100.00,SSE,164,4.0,8.0,39,-99.99,,,-99.99,,2013-07-28 07:02:00,
2013-07-28 00:12:00,71.0,45.0,-100.00,SSE,164,4.0,8.0,39,-99.99,,,-99.99,,2013-07-28 07:12:00,
2013-07-28 00:22:00,69.0,46.0,-100.00,SSE,165,4.0,7.0,43,-99.99,,,-99.99,,2013-07-28 07:22:00,
2013-07-28 00:32:00,69.0,46.0,-100.00,SSE,165,4.0,7.0,43,-99.99,,,-99.99,,2013-07-28 07:32:00,
2013-07-28 00:42:00,69.0,45.0,-100.00,ESE,121,3.0,5.0,42,-99.99,,,-99.99,,2013-07-28 07:42:00,
2013-07-28 00:53:00,69.0,45.0,-100.00,ESE,121,3.0,5.0,42,-99.99,,,-99.99,,2013-07-28 07:53:00,
2013-07-28 01:02:00,68.0,46.0,-100.00,ESE,112,2.0,3.0,45,-99.99,,,-99.99,,2013-07-28 08:02:00,
2013-07-28 01:12:00,68.0,46.0,-100.00,ESE,112,2.0,3.0,45,-99.99,,,-99.99,,2013-07-28 08:12:00,
2013-07-28 01:22:00,66.0,46.0,-100.00,ESE,123,1.0,3.0,49,-99.99,,,-99.99,,2013-07-28 08:22:00,
2013-07-28 01:33:00,66.0,46.0,-100.00,ESE,123,1.0,3.0,49,-99.99,,,-99.99,,2013-07-28 08:33:00,
2013-07-28 01:42:00,66.0,46.0,-100.00,ESE,123,1.0,3.0,49,-99.99,,,-99.99,,2013-07-28 08:42:00,
2013-07-28 01:53:00,66.0,47.0,-100.00,SE,134,3.0,4.0,50,-99.99,,,-99.99,,2013-07-28 08:53:00,
2013-07-28 02:02:00,66.0,47.0,-100.00,SE,134,3.0,4.0,50,-99.99,,,-99.99,,2013-07-28 09:02:00,
2013-07-28 02:12:00,65.0,44.0,-100.00,ESE,110,3.0,5.0,46,-99.99,,,-99.99,,2013-07-28 09:12:00,
2013-07-28 02:22:00,65.0,44.0,-100.00,ESE,110,3.0,5.0,46,-99.99,,,-99.99,,2013-07-28 09:22:00,
2013-07-28 02:43:00,63.0,45.0,-100.00,ESE,107,3.0,4.0,51,-99.99,,,-99.99,,2013-07-28 09:43:00,
2013-07-28 02:53:00,63.0,45.0,-100.00,ESE,107,3.0,4.0,51,-99.99,,,-99.99,,2013-07-28 09:53:00,
2013-07-28 03:02:00,62.0,41.0,-100.00,ESE,106,4.0,5.0,46,-99.99,,,-99.99,,2013-07-28 10:02:00,
2013-07-28 03:12:00,61.0,42.0,-100.00,East,89,2.0,3.0,50,-99.99,,,-99.99,,2013-07-28 10:12:00,
2013-07-28 03:22:00,61.0,42.0,-100.00,East,89,2.0,3.0,50,-99.99,,,-99.99,,2013-07-28 10:22:00,
2013-07-28 03:32:00,61.0,42.0,-100.00,East,92,3.0,5.0,50,-99.99,,,-99.99,,2013-07-28 10:32:00,
2013-07-28 03:42:00,61.0,41.0,-100.00,East,92,3.0,5.0,47,-99.99,,,-99.99,,2013-07-28 10:42:00,
2013-07-28 03:53:00,60.0,44.0,-100.00,ESE,120,2.0,4.0,54,-99.99,,,-99.99,,2013-07-28 10:53:00,
2013-07-28 04:02:00,60.0,44.0,-100.00,ESE,120,2.0,4.0,54,-99.99,,,-99.99,,2013-07-28 11:02:00,
2013-07-28 04:12:00,59.0,42.0,-100.00,East,85,2.0,4.0,53,-99.99,,,-99.99,,2013-07-28 11:12:00,
2013-07-28 04:22:00,59.0,42.0,-100.00,East,85,2.0,4.0,53,-99.99,,,-99.99,,2013-07-28 11:22:00,
2013-07-28 04:54:00,59.0,43.0,-100.00,SE,134,3.0,5.0,56,-99.99,,,-99.99,,2013-07-28 11:54:00,
2013-07-28 05:02:00,59.0,43.0,-100.00,SE,134,3.0,5.0,56,-99.99,,,-99.99,,2013-07-28 12:02:00,
2013-07-28 05:22:00,58.0,44.0,-100.00,ESE,113,3.0,5.0,60,-99.99,,,-99.99,,2013-07-28 12:22:00,
2013-07-28 05:33:00,57.0,46.0,-100.00,ESE,112,1.0,3.0,66,-99.99,,,-99.99,,2013-07-28 12:33:00,
2013-07-28 05:43:00,57.0,46.0,-100.00,ESE,112,1.0,3.0,66,-99.99,,,-99.99,,2013-07-28 12:43:00,
2013-07-28 05:53:00,57.0,46.0,-100.00,ESE,123,3.0,4.0,68,-99.99,,,-99.99,,2013-07-28 12:53:00,
2013-07-28 06:02:00,57.0,46.0,-100.00,ESE,123,3.0,4.0,68,-99.99,,,-99.99,,2013-07-28 13:02:00,
2013-07-28 06:12:00,56.0,45.0,-100.00,ESE,116,4.0,6.0,65,-99.99,,,-99.99,,2013-07-28 13:12:00,
2013-07-28 06:22:00,56.0,45.0,-100.00,ESE,116,4.0,6.0,65,-99.99,,,-99.99,,2013-07-28 13:22:00,
2013-07-28 06:32:00,56.0,45.0,-100.00,ESE,116,4.0,6.0,65,-99.99,,,-99.99,,2013-07-28 13:32:00,
2013-07-28 06:43:00,58.0,44.0,-100.00,ESE,116,3.0,5.0,59,-99.99,,,-99.99,,2013-07-28 13:43:00,
2013-07-28 06:53:00,58.0,44.0,-100.00,ESE,116,3.0,5.0,59,-99.99,,,-99.99,,2013-07-28 13:53:00,
2013-07-28 07:02:00,58.0,44.0,-100.00,ESE,107,4.0,6.0,59,-99.99,,,-99.99,,2013-07-28 14:02:00,
2013-07-28 07:12:00,59.0,43.0,-100.00,ESE,107,4.0,6.0,56,-99.99,,,-99.99,,2013-07-28 14:12:00,
2013-07-28 07:33:00,60.0,43.0,-100.00,ESE,117,4.0,6.0,52,-99.99,,,-99.99,,2013-07-28 14:33:00,
2013-07-28 07:43:00,62.0,44.0,-100.00,ESE,123,1.0,4.0,51,-99.99,,,-99.99,,2013-07-28 14:43:00,
2013-07-28 07:53:00,62.0,44.0,-100.00,ESE,123,1.0,4.0,51,-99.99,,,-99.99,,2013-07-28 14:53:00,
2013-07-28 08:02:00,65.0,46.0,-100.00,SSW,212,1.0,3.0,50,-99.99,,,-99.99,,2013-07-28 15:02:00,
2013-07-28 08:12:00,65.0,46.0,-100.00,SSW,212,1.0,3.0,50,-99.99,,,-99.99,,2013-07-28 15:12:00,
2013-07-28 08:32:00,67.0,47.0,-100.00,WNW,291,1.0,3.0,49,-99.99,,,-99.99,,2013-07-28 15:32:00,
2013-07-28 08:53:00,69.0,44.0,-100.00,North,349,1.0,4.0,40,-99.99,,,-99.99,,2013-07-28 15:53:00,
2013-07-28 09:02:00,69.0,44.0,-100.00,West,263,4.0,6.0,40,-99.99,,,-99.99,,2013-07-28 16:02:00,
2013-07-28 09:12:00,69.0,49.0,-100.00,West,263,4.0,6.0,48,-99.99,,,-99.99,,2013-07-28 16:12:00,
2013-07-28 09:22:00,69.0,49.0,-100.00,West,263,4.0,6.0,48,-99.99,,,-99.99,,2013-07-28 16:22:00,
2013-07-28 09:33:00,70.0,46.0,-100.00,WSW,237,2.0,4.0,42,-99.99,,,-99.99,,2013-07-28 16:33:00,
2013-07-28 09:43:00,70.0,46.0,-100.00,WSW,237,2.0,4.0,42,-99.99,,,-99.99,,2013-07-28 16:43:00,
2013-07-28 09:52:00,70.0,46.0,-100.00,West,271,2.0,5.0,42,-99.99,,,-99.99,,2013-07-28 16:52:00,
2013-07-28 10:01:00,76.0,46.0,-100.00,WNW,292,2.0,4.0,34,-99.99,,,-99.99,,2013-07-28 17:01:00,
2013-07-28 10:22:00,74.0,46.0,-100.00,WSW,237,3.0,5.0,38,-99.99,,,-99.99,,2013-07-28 17:22:00,
2013-07-28 10:32:00,74.0,46.0,-100.00,WSW,237,3.0,5.0,38,-99.99,,,-99.99,,2013-07-28 17:32:00,
2013-07-28 10:43:00,76.0,46.0,-100.00,WNW,292,2.0,4.0,34,-99.99,,,-99.99,,2013-07-28 17:43:00,
2013-07-28 10:53:00,76.0,46.0,-100.00,WNW,292,2.0,4.0,34,-99.99,,,-99.99,,2013-07-28 17:53:00,
2013-07-28 11:12:00,81.0,42.0,-100.00,WSW,258,3.0,6.0,25,-99.99,,,-99.99,,2013-07-28 18:12:00,
2013-07-28 11:22:00,81.0,42.0,-100.00,WSW,258,3.0,6.0,25,-99.99,,,-99.99,,2013-07-28 18:22:00,
2013-07-28 11:32:00,82.0,38.0,-100.00,WSW,251,4.0,7.0,21,-99.99,,,-99.99,,2013-07-28 18:32:00,
2013-07-28 11:42:00,82.0,38.0,-100.00,WSW,251,4.0,7.0,21,-99.99,,,-99.99,,2013-07-28 18:42:00,
2013-07-28 11:52:00,83.0,31.0,-100.00,WNW,298,4.0,8.0,15,-99.99,,,-99.99,,2013-07-28 18:52:00,
2013-07-28 12:02:00,83.0,31.0,-100.00,WNW,298,4.0,8.0,15,-99.99,,,-99.99,,2013-07-28 19:02:00,
2013-07-28 12:12:00,85.0,33.0,-100.00,NW,326,5.0,11.0,15,-99.99,,,-99.99,,2013-07-28 19:12:00,
2013-07-28 12:22:00,85.0,33.0,-100.00,NW,326,5.0,11.0,15,-99.99,,,-99.99,,2013-07-28 19:22:00,
2013-07-28 12:32:00,85.0,35.0,-100.00,NW,323,5.0,12.0,16,-99.99,,,-99.99,,2013-07-28 19:32:00,
2013-07-28 12:43:00,85.0,35.0,-100.00,NW,323,5.0,12.0,16,-99.99,,,-99.99,,2013-07-28 19:43:00,
2013-07-28 12:52:00,85.0,35.0,-100.00,NW,323,5.0,12.0,16,-99.99,,,-99.99,,2013-07-28 19:52:00,
2013-07-28 13:02:00,85.0,38.0,-100.00,West,280,4.0,11.0,19,-99.99,,,-99.99,,2013-07-28 20:02:00,
2013-07-28 13:12:00,85.0,38.0,-100.00,West,280,4.0,11.0,19,-99.99,,,-99.99,,2013-07-28 20:12:00,
2013-07-28 13:33:00,87.0,40.0,-100.00,WNW,302,8.0,26.0,19,-99.99,,,-99.99,,2013-07-28 20:33:00,
2013-07-28 13:43:00,86.0,36.0,-100.00,NW,319,7.0,13.0,17,-99.99,,,-99.99,,2013-07-28 20:43:00,
2013-07-28 13:52:00,86.0,36.0,-100.00,NW,319,7.0,13.0,17,-99.99,,,-99.99,,2013-07-28 20:52:00,
2013-07-28 14:02:00,87.0,40.0,-100.00,West,281,4.0,10.0,19,-99.99,,,-99.99,,2013-07-28 21:02:00,
2013-07-28 14:12:00,87.0,40.0,-100.00,West,281,4.0,10.0,19,-99.99,,,-99.99,,2013-07-28 21:12:00,
2013-07-28 14:22:00,87.0,40.0,-100.00,West,281,4.0,10.0,19,-99.99,,,-99.99,,2013-07-28 21:22:00,
2013-07-28 14:33:00,88.0,37.0,-100.00,West,278,11.0,20.0,17,-99.99,,,-99.99,,2013-07-28 21:33:00,
2013-07-28 14:43:00,88.0,42.0,-100.00,WSW,251,8.0,15.0,20,-99.99,,,-99.99,,2013-07-28 21:43:00,
2013-07-28 14:52:00,88.0,42.0,-100.00,WSW,251,8.0,15.0,20,-99.99,,,-99.99,,2013-07-28 21:52:00,
2013-07-28 15:01:00,88.0,39.0,-100.00,West,271,12.0,22.0,18,-99.99,,,-99.99,,2013-07-28 22:01:00,
2013-07-28 15:12:00,88.0,39.0,-100.00,West,271,12.0,22.0,18,-99.99,,,-99.99,,2013-07-28 22:12:00,
2013-07-28 15:22:00,88.0,39.0,-100.00,West,271,12.0,22.0,18,-99.99,,,-99.99,,2013-07-28 22:22:00,
2013-07-28 15:43:00,84.0,41.0,-100.00,West,265,15.0,22.0,22,-99.99,,,-99.99,,2013-07-28 22:43:00,
2013-07-28 15:52:00,84.0,41.0,-100.00,West,265,15.0,22.0,22,-99.99,,,-99.99,,2013-07-28 22:52:00,
2013-07-28 16:03:00,84.0,41.0,-100.00,West,268,13.0,24.0,22,-99.99,,,-99.99,,2013-07-28 23:03:00,
2013-07-28 16:12:00,85.0,43.0,-100.00,West,268,13.0,24.0,23,-99.99,,,-99.99,,2013-07-28 23:12:00,
2013-07-28 16:22:00,85.0,43.0,-100.00,West,268,13.0,24.0,23,-99.99,,,-99.99,,2013-07-28 23:22:00,
2013-07-28 16:32:00,85.0,43.0,-100.00,West,264,14.0,22.0,23,-99.99,,,-99.99,,2013-07-28 23:32:00,
2013-07-28 16:43:00,85.0,41.0,-100.00,West,264,14.0,22.0,21,-99.99,,,-99.99,,2013-07-28 23:43:00,
2013-07-28 16:53:00,85.0,43.0,-100.00,West,260,15.0,23.0,23,-99.99,,,-99.99,,2013-07-28 23:53:00,
2013-07-28 17:02:00,85.0,43.0,-100.00,West,260,15.0,23.0,23,-99.99,,,-99.99,,2013-07-29 00:02:00,
2013-07-28 17:12:00,85.0,43.0,-100.00,West,263,14.0,20.0,23,-99.99,,,-99.99,,2013-07-29 00:12:00,
2013-07-28 17:22:00,86.0,42.0,-100.00,West,263,14.0,20.0,21,-99.99,,,-99.99,,2013-07-29 00:22:00,
2013-07-28 17:43:00,85.0,43.0,-100.00,WSW,256,14.0,24.0,23,-99.99,,,-99.99,,2013-07-29 00:43:00,
2013-07-28 18:01:00,84.0,41.0,-100.00,WSW,254,14.0,22.0,22,-99.99,,,-99.99,,2013-07-29 01:01:00,
2013-07-28 18:24:00,84.0,40.0,-100.00,WSW,247,12.0,22.0,21,-99.99,,,-99.99,,2013-07-29 01:24:00,
2013-07-28 18:42:00,83.0,43.0,-100.00,WSW,253,11.0,17.0,24,-99.99,,,-99.99,,2013-07-29 01:42:00,
2013-07-28 19:03:00,83.0,43.0,-100.00,West,268,7.0,13.0,25,-99.99,,,-99.99,,2013-07-29 02:03:00,
2013-07-28 19:24:00,82.0,40.0,-100.00,West,265,7.0,11.0,23,-99.99,,,-99.99,,2013-07-29 02:24:00,
2013-07-28 19:35:00,82.0,40.0,-100.00,West,265,7.0,11.0,23,-99.99,,,-99.99,,2013-07-29 02:35:00,
2013-07-28 19:45:00,81.0,40.0,-100.00,WSW,248,7.0,13.0,23,-99.99,,,-99.99,,2013-07-29 02:45:00,
2013-07-28 19:58:00,80.0,39.0,-100.00,West,272,8.0,15.0,24,-99.99,,,-99.99,,2013-07-29 02:58:00,
2013-07-28 20:14:00,80.0,39.0,-100.00,West,272,8.0,15.0,24,-99.99,,,-99.99,,2013-07-29 03:14:00,
2013-07-28 20:45:00,78.0,41.0,-100.00,ESE,107,2.0,6.0,27,-99.99,,,-99.99,,2013-07-29 03:45:00,
2013-07-28 21:02:00,78.0,43.0,-100.00,NE,52,2.0,5.0,29,-99.99,,,-99.99,,2013-07-29 04:02:00,
2013-07-28 21:12:00,78.0,43.0,-100.00,NE,52,2.0,5.0,29,-99.99,,,-99.99,,2013-07-29 04:12:00,
2013-07-28 21:32:00,76.0,42.0,-100.00,NNE,21,3.0,8.0,30,-99.99,,,-99.99,,2013-07-29 04:32:00,
2013-07-28 21:53:00,73.0,42.0,-100.00,NNE,32,4.0,7.0,32,-99.99,,,-99.99,,2013-07-29 04:53:00,
2013-07-28 22:02:00,73.0,42.0,-100.00,ENE,62,3.0,5.0,32,-99.99,,,-99.99,,2013-07-29 05:02:00,
2013-07-28 22:12:00,73.0,42.0,-100.00,ENE,62,3.0,5.0,32,-99.99,,,-99.99,,2013-07-29 05:12:00,
2013-07-28 22:32:00,72.0,43.0,-100.00,East,100,6.0,8.0,35,-99.99,,,-99.99,,2013-07-29 05:32:00,
2013-07-28 22:42:00,73.0,42.0,-100.00,ESE,117,5.0,9.0,33,-99.99,,,-99.99,,2013-07-29 05:42:00,
2013-07-28 22:53:00,73.0,42.0,-100.00,SE,138,5.0,8.0,33,-99.99,,,-99.99,,2013-07-29 05:53:00,
2013-07-28 23:02:00,72.0,43.0,-100.00,SE,138,5.0,8.0,34,-99.99,,,-99.99,,2013-07-29 06:02:00,
2013-07-28 23:12:00,72.0,43.0,-100.00,SE,138,5.0,8.0,34,-99.99,,,-99.99,,2013-07-29 06:12:00,
2013-07-28 23:32:00,72.0,42.0,-100.00,SE,133,3.0,7.0,34,-99.99,,,-99.99,,2013-07-29 06:32:00,
2013-07-28 23:43:00,72.0,42.0,-100.00,SE,133,3.0,7.0,34,-99.99,,,-99.99,,2013-07-29 06:43:00,